createdAt,value
2022-12-15T00:00:54.412Z,20.92
2022-12-15T00:02:16.000Z,19.08
2022-12-15T00:03:37.998Z,20.23
2022-12-15T00:04:59.264Z,17.48
2022-12-15T00:06:20.756Z,18.88
2022-12-15T00:07:41.914Z,18.17
2022-12-15T00:09:03.251Z,20.67
2022-12-15T00:10:24.377Z,19.40
2022-12-15T00:11:45.658Z,19.45
2022-12-15T00:13:07.032Z,19.75
2022-12-15T00:14:28.077Z,19.02
2022-12-15T00:15:49.310Z,19.98
2022-12-15T00:17:10.590Z,18.55
2022-12-15T00:18:31.625Z,19.77
2022-12-15T00:19:52.954Z,18.30
2022-12-15T00:21:18.050Z,18.75
2022-12-15T00:22:39.264Z,18.98
2022-12-15T00:24:00.432Z,21.08
2022-12-15T00:25:22.127Z,18.40
2022-12-15T00:26:43.223Z,21.38
2022-12-15T00:28:04.430Z,20.17
2022-12-15T00:29:25.839Z,19.52
2022-12-15T00:30:49.747Z,17.80
2022-12-15T00:32:11.557Z,19.77
2022-12-15T00:33:33.266Z,18.42
2022-12-15T00:34:54.635Z,20.65
2022-12-15T00:36:18.126Z,20.88
2022-12-15T00:37:39.526Z,21.02
2022-12-15T00:38:45.191Z,20.42
2022-12-15T00:39:58.593Z,20.60
2022-12-15T00:41:01.833Z,19.83
2022-12-15T00:42:04.586Z,20.02
2022-12-15T00:43:12.078Z,21.60
2022-12-15T00:44:20.361Z,21.48
2022-12-15T00:45:43.340Z,21.83
2022-12-15T00:46:55.153Z,23.95
2022-12-15T00:47:57.975Z,22.70
2022-12-15T00:49:01.692Z,24.88
2022-12-15T00:50:23.678Z,26.58
2022-12-15T00:51:45.545Z,22.15
2022-12-15T00:53:06.587Z,22.13
2022-12-15T00:54:28.744Z,20.63
2022-12-15T00:55:49.955Z,20.65
2022-12-15T00:57:11.128Z,22.45
2022-12-15T00:58:32.650Z,19.80
2022-12-15T00:59:53.866Z,24.63
2022-12-15T01:01:14.835Z,20.52
2022-12-15T01:03:58.130Z,20.00
2022-12-15T01:05:19.347Z,21.30
2022-12-15T01:06:40.312Z,24.27
2022-12-15T01:08:01.497Z,25.98
2022-12-15T01:09:24.938Z,24.08
2022-12-15T01:10:46.148Z,20.70
2022-12-15T01:12:07.272Z,22.77
2022-12-15T01:13:32.772Z,23.15
2022-12-15T01:14:54.331Z,21.25
2022-12-15T01:16:15.816Z,20.80
2022-12-15T01:17:37.434Z,21.40
2022-12-15T01:18:58.800Z,21.80
2022-12-15T01:20:20.001Z,23.52
2022-12-15T01:21:24.974Z,24.55
2022-12-15T01:22:28.056Z,20.88
2022-12-15T01:23:31.997Z,22.17
2022-12-15T01:24:34.969Z,22.58
2022-12-15T01:25:39.297Z,19.27
2022-12-15T01:26:41.937Z,22.60
2022-12-15T01:27:45.072Z,20.00
2022-12-15T01:28:47.788Z,20.75
2022-12-15T01:29:50.483Z,21.60
2022-12-15T01:30:53.209Z,20.42
2022-12-15T01:31:55.915Z,20.77
2022-12-15T01:32:58.625Z,21.83
2022-12-15T01:34:01.333Z,20.63
2022-12-15T01:35:07.881Z,21.73
2022-12-15T01:36:10.798Z,20.52
2022-12-15T01:37:13.701Z,20.48
2022-12-15T01:38:16.329Z,20.35
2022-12-15T01:39:19.000Z,21.75
2022-12-15T01:40:40.708Z,22.90
2022-12-15T01:41:43.473Z,21.70
2022-12-15T01:42:46.862Z,20.63
2022-12-15T01:43:49.939Z,21.02
2022-12-15T01:44:54.178Z,22.30
2022-12-15T01:46:06.675Z,20.67
2022-12-15T01:47:12.753Z,19.50
2022-12-15T01:48:28.617Z,19.40
2022-12-15T01:49:32.581Z,19.85
2022-12-15T01:50:41.215Z,21.13
2022-12-15T01:51:47.626Z,18.50
2022-12-15T01:52:51.275Z,18.55
2022-12-15T01:54:14.538Z,17.33
2022-12-15T01:55:18.537Z,17.13
2022-12-15T01:56:22.428Z,18.40
2022-12-15T01:57:29.805Z,18.90
2022-12-15T01:58:33.851Z,18.77
2022-12-15T01:59:40.995Z,18.50
2022-12-15T02:00:43.808Z,18.45
2022-12-15T02:01:49.657Z,20.27
2022-12-15T02:02:53.384Z,19.90
2022-12-15T02:03:56.532Z,19.13
2022-12-15T02:05:00.610Z,18.02
2022-12-15T02:06:03.881Z,20.30
2022-12-15T02:07:06.776Z,18.85
2022-12-15T02:08:09.895Z,18.70
2022-12-15T02:09:12.670Z,20.63
2022-12-15T02:10:15.467Z,20.58
2022-12-15T02:11:45.045Z,19.63
2022-12-15T02:13:02.349Z,18.25
2022-12-15T02:14:07.937Z,19.20
2022-12-15T02:15:20.007Z,20.35
2022-12-15T02:16:47.064Z,19.48
2022-12-15T02:18:10.677Z,18.63
2022-12-15T02:19:29.721Z,18.27
2022-12-15T02:20:43.547Z,19.08
2022-12-15T02:21:56.189Z,17.88
2022-12-15T02:23:20.178Z,20.00
2022-12-15T02:24:59.086Z,17.15
2022-12-15T02:26:38.102Z,19.08
2022-12-15T02:27:48.504Z,19.80
2022-12-15T02:29:13.263Z,19.52
2022-12-15T02:31:20.427Z,21.85
2022-12-15T02:32:28.002Z,20.75
2022-12-15T02:33:32.497Z,21.20
2022-12-15T02:34:38.367Z,21.83
2022-12-15T02:35:48.394Z,19.17
2022-12-15T02:37:06.271Z,18.35
2022-12-15T02:38:09.920Z,19.60
2022-12-15T02:39:13.187Z,21.00
2022-12-15T02:40:15.896Z,19.90
2022-12-15T02:41:38.612Z,21.83
2022-12-15T02:42:51.993Z,19.52
2022-12-15T02:43:54.631Z,18.60
2022-12-15T02:45:01.775Z,19.85
2022-12-15T02:46:42.195Z,18.63
2022-12-15T02:47:59.647Z,13.70
2022-12-15T02:49:38.811Z,16.83
2022-12-15T02:51:12.292Z,17.05
2022-12-15T02:52:48.831Z,17.40
2022-12-15T02:54:02.793Z,16.73
2022-12-15T02:55:13.420Z,17.30
2022-12-15T02:56:18.565Z,19.08
2022-12-15T02:57:31.605Z,17.80
2022-12-15T02:58:57.912Z,17.52
2022-12-15T03:00:19.111Z,17.05
2022-12-15T03:01:29.049Z,18.33
2022-12-15T03:02:33.009Z,16.55
2022-12-15T03:03:36.648Z,16.88
2022-12-15T03:04:40.231Z,18.15
2022-12-15T03:05:42.907Z,17.80
2022-12-15T03:06:46.032Z,18.75
2022-12-15T03:07:53.111Z,19.27
2022-12-15T03:08:55.779Z,16.65
2022-12-15T03:10:00.284Z,18.27
2022-12-15T03:11:02.951Z,18.45
2022-12-15T03:12:06.216Z,19.17
2022-12-15T03:13:08.835Z,19.23
2022-12-15T03:14:11.577Z,20.05
2022-12-15T03:15:14.296Z,19.52
2022-12-15T03:16:17.255Z,19.42
2022-12-15T03:17:20.149Z,18.83
2022-12-15T03:18:22.789Z,19.08
2022-12-15T03:19:26.312Z,18.65
2022-12-15T03:20:29.318Z,20.05
2022-12-15T03:21:31.945Z,19.85
2022-12-15T03:23:51.620Z,20.60
2022-12-15T03:24:54.229Z,18.63
2022-12-15T03:25:56.970Z,20.48
2022-12-15T03:26:59.779Z,17.58
2022-12-15T03:28:02.615Z,20.13
2022-12-15T03:29:05.333Z,18.33
2022-12-15T03:30:08.794Z,18.77
2022-12-15T03:31:11.517Z,20.05
2022-12-15T03:32:14.305Z,19.23
2022-12-15T03:33:17.395Z,21.30
2022-12-15T03:34:19.966Z,18.75
2022-12-15T03:35:22.737Z,19.75
2022-12-15T03:36:25.389Z,19.45
2022-12-15T03:37:28.344Z,20.13
2022-12-15T03:38:31.093Z,20.08
2022-12-15T03:39:34.048Z,19.63
2022-12-15T03:40:36.714Z,21.42
2022-12-15T03:41:39.386Z,18.65
2022-12-15T03:42:50.892Z,20.15
2022-12-15T03:43:53.628Z,18.35
2022-12-15T03:44:56.241Z,19.83
2022-12-15T03:45:58.957Z,20.33
2022-12-15T03:47:03.800Z,19.52
2022-12-15T03:48:07.258Z,18.48
2022-12-15T03:49:09.975Z,20.83
2022-12-15T03:50:15.234Z,19.58
2022-12-15T03:51:17.888Z,19.45
2022-12-15T03:52:20.564Z,20.80
2022-12-15T03:53:23.345Z,19.15
2022-12-15T03:54:25.941Z,19.40
2022-12-15T03:55:29.222Z,22.20
2022-12-15T03:56:32.520Z,20.10
2022-12-15T03:57:35.272Z,19.63
2022-12-15T03:58:37.985Z,19.73
2022-12-15T03:59:40.666Z,19.52
2022-12-15T04:00:43.333Z,20.38
2022-12-15T04:01:48.084Z,20.30
2022-12-15T04:02:51.342Z,20.33
2022-12-15T04:04:00.215Z,18.55
2022-12-15T04:05:04.172Z,20.27
2022-12-15T04:06:07.041Z,19.63
2022-12-15T04:07:09.652Z,20.13
2022-12-15T04:08:12.935Z,18.92
2022-12-15T04:09:15.534Z,19.63
2022-12-15T04:10:18.522Z,19.50
2022-12-15T04:11:21.230Z,20.13
2022-12-15T04:12:24.076Z,18.33
2022-12-15T04:13:26.719Z,18.90
2022-12-15T04:14:33.296Z,20.42
2022-12-15T04:15:37.799Z,19.50
2022-12-15T04:16:40.474Z,18.42
2022-12-15T04:17:43.540Z,20.67
2022-12-15T04:18:46.325Z,18.48
2022-12-15T04:20:07.923Z,18.98
2022-12-15T04:21:10.528Z,18.25
2022-12-15T04:22:17.789Z,19.35
2022-12-15T04:23:21.009Z,17.40
2022-12-15T04:24:42.225Z,18.20
2022-12-15T04:26:03.602Z,18.35
2022-12-15T04:27:24.361Z,18.13
2022-12-15T04:28:45.503Z,18.00
2022-12-15T04:30:06.517Z,18.38
2022-12-15T04:31:33.942Z,16.67
2022-12-15T04:32:55.169Z,17.10
2022-12-15T04:34:30.092Z,17.92
2022-12-15T04:35:52.453Z,18.08
2022-12-15T04:37:15.881Z,17.45
2022-12-15T04:38:38.196Z,20.13
2022-12-15T04:40:10.054Z,17.30
2022-12-15T04:41:32.351Z,17.27
2022-12-15T04:42:55.161Z,17.70
2022-12-15T04:44:16.197Z,18.02
2022-12-15T04:45:40.256Z,18.45
2022-12-15T04:47:01.745Z,18.13
2022-12-15T04:48:23.574Z,17.98
2022-12-15T04:49:45.127Z,19.02
2022-12-15T04:51:06.419Z,17.05
2022-12-15T04:52:27.678Z,19.02
2022-12-15T04:53:51.074Z,15.75
2022-12-15T04:55:12.363Z,17.40
2022-12-15T04:56:34.195Z,17.70
2022-12-15T04:57:55.350Z,19.17
2022-12-15T04:59:17.059Z,18.33
2022-12-15T05:00:38.345Z,18.83
2022-12-15T05:01:59.678Z,19.23
2022-12-15T05:03:25.763Z,17.02
2022-12-15T05:04:47.250Z,17.77
2022-12-15T05:06:08.574Z,18.90
2022-12-15T05:07:30.018Z,18.02
2022-12-15T05:08:51.159Z,17.88
2022-12-15T05:10:15.115Z,19.08
2022-12-15T05:11:36.853Z,16.92
2022-12-15T05:12:57.978Z,18.40
2022-12-15T05:14:19.171Z,17.00
2022-12-15T05:15:40.233Z,17.13
2022-12-15T05:17:01.389Z,19.65
2022-12-15T05:18:22.847Z,18.20
2022-12-15T05:19:44.054Z,18.63
2022-12-15T05:21:05.258Z,18.65
2022-12-15T05:22:26.793Z,20.02
2022-12-15T05:23:48.217Z,20.80
2022-12-15T05:25:09.473Z,22.88
2022-12-15T05:26:30.668Z,23.98
2022-12-15T05:27:52.007Z,22.25
2022-12-15T05:29:13.235Z,21.73
2022-12-15T05:30:34.401Z,24.55
2022-12-15T05:31:52.363Z,23.08
2022-12-15T05:32:55.151Z,22.40
2022-12-15T05:34:04.451Z,23.67
2022-12-15T05:35:07.953Z,22.15
2022-12-15T05:36:10.662Z,20.55
2022-12-15T05:37:13.405Z,21.25
2022-12-15T05:38:16.122Z,23.40
2022-12-15T05:39:20.472Z,21.58
2022-12-15T05:40:23.137Z,20.83
2022-12-15T05:41:25.915Z,21.35
2022-12-15T05:42:28.579Z,20.92
2022-12-15T05:43:31.771Z,22.00
2022-12-15T05:44:37.050Z,24.75
2022-12-15T05:45:39.733Z,25.40
2022-12-15T05:46:44.275Z,27.48
2022-12-15T05:47:52.123Z,28.83
2022-12-15T05:48:54.773Z,27.85
2022-12-15T05:49:57.506Z,27.88
2022-12-15T05:51:07.551Z,29.08
2022-12-15T05:52:10.204Z,26.25
2022-12-15T05:53:12.926Z,28.02
2022-12-15T05:54:18.398Z,26.42
2022-12-15T05:55:21.315Z,26.83
2022-12-15T05:56:25.703Z,27.73
2022-12-15T05:57:28.469Z,27.20
2022-12-15T05:58:31.166Z,28.73
2022-12-15T05:59:33.970Z,27.55
2022-12-15T06:00:36.927Z,25.65
2022-12-15T06:01:40.052Z,26.42
2022-12-15T06:02:42.810Z,23.20
2022-12-15T06:03:45.921Z,23.98
2022-12-15T06:04:48.829Z,22.23
2022-12-15T06:05:56.257Z,24.02
2022-12-15T06:06:59.478Z,24.92
2022-12-15T06:08:02.405Z,23.38
2022-12-15T06:09:05.131Z,21.95
2022-12-15T06:10:08.185Z,22.52
2022-12-15T06:11:13.486Z,21.50
2022-12-15T06:12:16.683Z,21.20
2022-12-15T06:13:20.070Z,22.40
2022-12-15T06:14:22.806Z,22.58
2022-12-15T06:15:25.555Z,21.67
2022-12-15T06:16:28.368Z,21.10
2022-12-15T06:17:31.021Z,21.98
2022-12-15T06:18:38.190Z,21.38
2022-12-15T06:19:41.013Z,20.95
2022-12-15T06:20:43.681Z,21.67
2022-12-15T06:21:46.363Z,20.40
2022-12-15T06:22:50.016Z,21.55
2022-12-15T06:23:53.655Z,21.10
2022-12-15T06:24:56.324Z,21.13
2022-12-15T06:26:00.030Z,21.60
2022-12-15T06:27:03.017Z,22.60
2022-12-15T06:28:05.766Z,22.48
2022-12-15T06:29:10.797Z,23.70
2022-12-15T06:30:14.275Z,22.00
2022-12-15T06:31:19.712Z,22.90
2022-12-15T06:32:22.497Z,23.30
2022-12-15T06:33:25.161Z,22.42
2022-12-15T06:34:28.118Z,21.98
2022-12-15T06:35:30.884Z,21.38
2022-12-15T06:36:34.005Z,23.40
2022-12-15T06:37:36.658Z,21.85
2022-12-15T06:38:39.921Z,23.95
2022-12-15T06:39:42.915Z,23.02
2022-12-15T06:40:45.547Z,22.50
2022-12-15T06:41:48.216Z,23.63
2022-12-15T06:42:51.122Z,22.05
2022-12-15T06:43:57.995Z,23.05
2022-12-15T06:45:00.605Z,21.65
2022-12-15T06:46:04.125Z,23.58
2022-12-15T06:47:07.548Z,22.52
2022-12-15T06:48:10.237Z,22.05
2022-12-15T06:49:13.141Z,23.63
2022-12-15T06:50:15.933Z,23.55
2022-12-15T06:51:20.891Z,26.55
2022-12-15T06:52:23.521Z,23.48
2022-12-15T06:53:26.166Z,24.05
2022-12-15T06:54:28.871Z,26.73
2022-12-15T06:55:31.675Z,26.77
2022-12-15T06:56:38.949Z,23.33
2022-12-15T06:57:41.602Z,24.73
2022-12-15T06:58:44.377Z,26.83
2022-12-15T06:59:47.043Z,27.63
2022-12-15T07:00:49.621Z,29.00
2022-12-15T07:01:52.465Z,26.25
2022-12-15T07:02:55.375Z,25.35
2022-12-15T07:04:00.379Z,24.58
2022-12-15T07:05:03.746Z,24.98
2022-12-15T07:06:09.396Z,25.88
2022-12-15T07:07:12.062Z,25.60
2022-12-15T07:08:16.228Z,24.77
2022-12-15T07:09:18.920Z,28.10
2022-12-15T07:10:22.542Z,27.95
2022-12-15T07:11:25.156Z,25.80
2022-12-15T07:12:27.839Z,25.73
2022-12-15T07:13:31.262Z,25.05
2022-12-15T07:14:34.227Z,23.98
2022-12-15T07:15:37.014Z,24.70
2022-12-15T07:16:41.115Z,24.80
2022-12-15T07:17:43.956Z,26.30
2022-12-15T07:18:46.628Z,25.73
2022-12-15T07:19:49.356Z,23.77
2022-12-15T07:20:52.297Z,24.77
2022-12-15T07:21:57.712Z,24.23
2022-12-15T07:23:01.027Z,24.73
2022-12-15T07:24:04.521Z,26.13
2022-12-15T07:25:08.272Z,26.63
2022-12-15T07:26:11.814Z,25.77
2022-12-15T07:27:14.764Z,25.15
2022-12-15T07:28:20.056Z,26.25
2022-12-15T07:29:27.098Z,24.85
2022-12-15T07:30:35.118Z,26.20
2022-12-15T07:31:41.490Z,23.88
2022-12-15T07:32:44.396Z,24.80
2022-12-15T07:33:54.836Z,26.13
2022-12-15T07:34:57.711Z,25.83
2022-12-15T07:36:01.227Z,25.95
2022-12-15T07:37:04.363Z,23.27
2022-12-15T07:38:07.631Z,24.02
2022-12-15T07:39:10.778Z,22.92
2022-12-15T07:40:13.446Z,22.98
2022-12-15T07:41:16.537Z,25.20
2022-12-15T07:42:19.587Z,23.27
2022-12-15T07:43:22.729Z,23.63
2022-12-15T07:44:25.399Z,23.80
2022-12-15T07:45:28.102Z,23.77
2022-12-15T07:46:31.158Z,25.13
2022-12-15T07:47:34.049Z,26.48
2022-12-15T07:48:36.904Z,25.30
2022-12-15T07:49:39.575Z,25.10
2022-12-15T07:50:42.249Z,27.58
2022-12-15T07:51:45.111Z,25.88
2022-12-15T07:52:47.758Z,26.33
2022-12-15T07:53:51.290Z,26.35
2022-12-15T07:54:54.045Z,26.20
2022-12-15T07:56:07.416Z,27.00
2022-12-15T07:57:11.565Z,23.70
2022-12-15T07:58:14.336Z,27.17
2022-12-15T07:59:17.218Z,27.00
2022-12-15T08:00:20.245Z,27.05
2022-12-15T08:01:23.209Z,26.23
2022-12-15T08:02:26.119Z,29.17
2022-12-15T08:03:30.085Z,29.13
2022-12-15T08:04:33.361Z,25.33
2022-12-15T08:05:35.998Z,26.48
2022-12-15T08:06:38.758Z,27.95
2022-12-15T08:07:41.411Z,28.30
2022-12-15T08:08:50.448Z,28.05
2022-12-15T08:09:53.977Z,27.83
2022-12-15T08:10:56.687Z,28.40
2022-12-15T08:11:59.374Z,26.88
2022-12-15T08:13:02.117Z,26.42
2022-12-15T08:14:07.960Z,27.40
2022-12-15T08:15:15.252Z,25.67
2022-12-15T08:16:17.911Z,27.38
2022-12-15T08:17:21.021Z,25.73
2022-12-15T08:18:23.612Z,25.85
2022-12-15T08:19:26.439Z,27.60
2022-12-15T08:20:30.532Z,25.27
2022-12-15T08:21:33.970Z,26.20
2022-12-15T08:22:36.741Z,24.48
2022-12-15T08:23:40.428Z,26.02
2022-12-15T08:24:43.265Z,24.40
2022-12-15T08:25:45.861Z,26.52
2022-12-15T08:26:49.903Z,26.45
2022-12-15T08:27:53.231Z,24.08
2022-12-15T08:28:55.874Z,24.27
2022-12-15T08:29:58.486Z,24.65
2022-12-15T08:31:21.555Z,24.80
2022-12-15T08:32:24.689Z,23.85
2022-12-15T08:33:27.684Z,25.27
2022-12-15T08:34:30.693Z,25.10
2022-12-15T08:35:55.658Z,23.27
2022-12-15T08:36:56.035Z,24.05
2022-12-15T08:38:03.821Z,25.50
2022-12-15T08:39:08.380Z,25.60
2022-12-15T08:40:12.073Z,25.40
2022-12-15T08:41:16.137Z,25.40
2022-12-15T08:42:18.865Z,26.27
2022-12-15T08:43:21.537Z,26.55
2022-12-15T08:44:24.141Z,27.38
2022-12-15T08:45:26.767Z,27.67
2022-12-15T08:46:31.794Z,25.08
2022-12-15T08:47:34.738Z,28.02
2022-12-15T08:48:37.426Z,27.60
2022-12-15T08:49:40.227Z,28.02
2022-12-15T08:50:44.988Z,28.75
2022-12-15T08:51:50.153Z,30.83
2022-12-15T08:53:21.444Z,31.45
2022-12-15T08:54:16.026Z,27.77
2022-12-15T08:55:22.372Z,28.25
2022-12-15T08:56:26.202Z,28.83
2022-12-15T08:57:29.262Z,28.02
2022-12-15T08:58:32.163Z,27.92
2022-12-15T08:59:34.877Z,28.23
2022-12-15T09:00:37.509Z,28.27
2022-12-15T09:01:40.549Z,27.60
2022-12-15T09:02:43.644Z,26.73
2022-12-15T09:03:46.939Z,28.00
2022-12-15T09:04:51.044Z,26.70
2022-12-15T09:05:55.052Z,24.73
2022-12-15T09:06:57.756Z,26.52
2022-12-15T09:08:06.110Z,26.98
2022-12-15T09:09:12.021Z,26.05
2022-12-15T09:10:14.761Z,28.30
2022-12-15T09:11:17.928Z,26.90
2022-12-15T09:12:20.717Z,28.00
2022-12-15T09:13:23.525Z,25.58
2022-12-15T09:14:29.465Z,25.67
2022-12-15T09:16:07.013Z,25.15
2022-12-15T09:16:55.215Z,22.33
2022-12-15T09:17:58.397Z,23.40
2022-12-15T09:19:01.310Z,23.55
2022-12-15T09:20:04.371Z,24.13
2022-12-15T09:21:08.215Z,24.63
2022-12-15T09:22:10.871Z,23.45
2022-12-15T09:23:13.598Z,22.95
2022-12-15T09:24:25.852Z,21.48
2022-12-15T09:25:31.695Z,21.45
2022-12-15T09:26:34.856Z,22.58
2022-12-15T09:27:37.554Z,21.45
2022-12-15T09:28:41.108Z,21.35
2022-12-15T09:29:43.760Z,20.83
2022-12-15T09:30:46.421Z,21.40
2022-12-15T09:31:49.085Z,21.60
2022-12-15T09:32:51.791Z,19.55
2022-12-15T09:33:56.466Z,20.45
2022-12-15T09:34:59.085Z,18.52
2022-12-15T09:36:01.966Z,18.73
2022-12-15T09:37:04.785Z,19.90
2022-12-15T09:38:07.422Z,18.90
2022-12-15T09:39:12.132Z,17.70
2022-12-15T09:40:14.836Z,18.73
2022-12-15T09:41:22.992Z,18.10
2022-12-15T09:42:28.135Z,18.83
2022-12-15T09:43:34.966Z,18.52
2022-12-15T09:44:39.071Z,18.73
2022-12-15T09:45:52.302Z,16.77
2022-12-15T09:47:16.804Z,19.70
2022-12-15T09:48:23.707Z,18.13
2022-12-15T09:49:47.736Z,16.45
2022-12-15T09:50:53.024Z,17.52
2022-12-15T09:52:11.236Z,16.70
2022-12-15T09:53:45.510Z,17.10
2022-12-15T09:54:41.899Z,16.88
2022-12-15T09:55:49.530Z,17.52
2022-12-15T09:56:56.113Z,18.15
2022-12-15T09:58:23.246Z,18.95
2022-12-15T09:59:46.770Z,17.50
2022-12-15T10:01:08.213Z,17.52
2022-12-15T10:02:44.446Z,17.55
2022-12-15T10:03:56.197Z,16.80
2022-12-15T10:05:17.374Z,16.58
2022-12-15T10:07:46.638Z,18.90
2022-12-15T10:09:22.174Z,19.88
2022-12-15T10:10:34.909Z,18.13
2022-12-15T10:11:55.802Z,19.73
2022-12-15T10:14:31.195Z,21.35
2022-12-15T10:15:44.477Z,18.73
2022-12-15T10:17:15.054Z,21.27
2022-12-15T10:18:28.900Z,18.73
2022-12-15T10:19:40.906Z,20.23
2022-12-15T10:20:43.554Z,21.40
2022-12-15T10:21:50.544Z,18.38
2022-12-15T10:22:54.220Z,19.35
2022-12-15T10:24:12.654Z,20.35
2022-12-15T10:25:30.175Z,18.88
2022-12-15T10:26:35.223Z,20.23
2022-12-15T10:28:02.562Z,19.48
2022-12-15T10:29:32.328Z,19.52
2022-12-15T10:30:35.440Z,19.35
2022-12-15T10:31:50.388Z,20.90
2022-12-15T10:33:03.151Z,23.10
2022-12-15T10:34:29.711Z,20.27
2022-12-15T10:35:35.686Z,21.63
2022-12-15T10:36:38.487Z,21.40
2022-12-15T10:37:41.440Z,22.20
2022-12-15T10:38:50.642Z,24.15
2022-12-15T10:39:53.538Z,21.40
2022-12-15T10:41:01.312Z,22.90
2022-12-15T10:42:16.728Z,21.58
2022-12-15T10:43:42.990Z,23.63
2022-12-15T10:44:50.481Z,20.63
2022-12-15T10:46:18.840Z,21.88
2022-12-15T10:47:26.334Z,20.73
2022-12-15T10:48:29.101Z,22.17
2022-12-15T10:49:31.795Z,22.88
2022-12-15T10:50:35.611Z,22.70
2022-12-15T10:51:47.614Z,20.92
2022-12-15T10:52:50.531Z,24.00
2022-12-15T10:54:05.149Z,23.05
2022-12-15T10:55:42.414Z,20.05
2022-12-15T10:56:50.199Z,20.92
2022-12-15T10:58:00.252Z,24.25
2022-12-15T10:59:23.958Z,21.13
2022-12-15T11:00:29.629Z,21.42
2022-12-15T11:01:34.479Z,20.75
2022-12-15T11:02:37.657Z,22.05
2022-12-15T11:03:41.300Z,21.25
2022-12-15T11:04:58.707Z,21.08
2022-12-15T11:06:01.500Z,24.35
2022-12-15T11:07:04.354Z,22.50
2022-12-15T11:08:17.514Z,24.10
2022-12-15T11:09:38.386Z,21.27
2022-12-15T11:11:45.094Z,20.77
2022-12-15T11:13:15.622Z,22.80
2022-12-15T11:14:24.260Z,23.08
2022-12-15T11:15:38.586Z,22.60
2022-12-15T11:16:51.351Z,23.55
2022-12-15T11:18:29.172Z,22.88
2022-12-15T11:19:39.557Z,21.67
2022-12-15T11:20:45.912Z,24.67
2022-12-15T11:21:56.413Z,22.95
2022-12-15T11:23:03.383Z,23.88
2022-12-15T11:24:11.075Z,24.02
2022-12-15T11:25:33.834Z,23.17
2022-12-15T11:28:22.634Z,22.80
2022-12-15T11:29:44.649Z,21.77
2022-12-15T11:31:02.120Z,23.10
2022-12-15T11:32:07.476Z,22.13
2022-12-15T11:33:10.856Z,23.25
2022-12-15T11:34:15.759Z,23.40
2022-12-15T11:35:22.476Z,22.98
2022-12-15T11:36:42.425Z,21.92
2022-12-15T11:37:45.593Z,24.30
2022-12-15T11:38:55.386Z,20.65
2022-12-15T11:40:13.397Z,21.13
2022-12-15T11:41:37.334Z,20.67
2022-12-15T11:42:52.143Z,20.80
2022-12-15T11:44:16.438Z,21.95
2022-12-15T11:45:23.889Z,20.88
2022-12-15T11:46:41.433Z,23.40
2022-12-15T11:48:01.353Z,22.27
2022-12-15T11:49:41.372Z,21.23
2022-12-15T11:50:56.978Z,21.38
2022-12-15T11:52:10.130Z,21.05
2022-12-15T11:53:31.834Z,24.02
2022-12-15T11:54:44.236Z,19.98
2022-12-15T11:56:24.014Z,22.00
2022-12-15T11:57:47.647Z,23.23
2022-12-15T11:58:53.134Z,21.40
2022-12-15T12:00:04.691Z,20.50
2022-12-15T12:01:36.699Z,21.90
2022-12-15T12:02:57.715Z,19.80
2022-12-15T12:04:14.903Z,20.73
2022-12-15T12:05:17.585Z,21.42
2022-12-15T12:06:29.958Z,22.08
2022-12-15T12:07:45.041Z,23.48
2022-12-15T12:09:32.958Z,22.23
2022-12-15T12:10:58.089Z,20.30
2022-12-15T12:12:13.438Z,19.30
2022-12-15T12:13:29.453Z,20.50
2022-12-15T12:14:50.496Z,21.58
2022-12-15T12:16:22.798Z,20.83
2022-12-15T12:17:41.946Z,19.45
2022-12-15T12:19:04.666Z,21.00
2022-12-15T12:20:40.153Z,19.73
2022-12-15T12:21:50.912Z,19.05
2022-12-15T12:23:29.149Z,22.27
2022-12-15T12:25:04.494Z,19.88
2022-12-15T12:26:21.434Z,20.65
2022-12-15T12:27:53.658Z,21.77
2022-12-15T12:29:26.446Z,20.80
2022-12-15T12:30:35.618Z,21.13
2022-12-15T12:33:51.995Z,21.92
2022-12-15T12:35:31.635Z,21.50
2022-12-15T12:36:29.712Z,21.75
2022-12-15T12:37:38.546Z,22.63
2022-12-15T12:38:51.233Z,24.23
2022-12-15T12:40:00.359Z,23.13
2022-12-15T12:41:02.971Z,23.33
2022-12-15T12:42:33.877Z,23.42
2022-12-15T12:43:40.891Z,21.17
2022-12-15T12:44:43.633Z,21.70
2022-12-15T12:45:56.467Z,22.77
2022-12-15T12:47:06.402Z,21.88
2022-12-15T12:48:35.617Z,23.65
2022-12-15T12:49:45.673Z,23.30
2022-12-15T12:51:06.131Z,22.25
2022-12-15T12:52:21.792Z,22.75
2022-12-15T12:53:33.873Z,23.52
2022-12-15T12:54:40.456Z,21.70
2022-12-15T12:55:43.362Z,23.33
2022-12-15T12:56:48.704Z,21.38
2022-12-15T12:57:54.275Z,21.23
2022-12-15T12:58:56.957Z,20.85
2022-12-15T13:00:07.958Z,21.17
2022-12-15T13:01:32.447Z,19.83
2022-12-15T13:02:37.012Z,20.58
2022-12-15T13:03:41.847Z,19.98
2022-12-15T13:04:50.358Z,20.75
2022-12-15T13:05:54.661Z,20.27
2022-12-15T13:07:06.820Z,22.65
2022-12-15T13:08:13.472Z,20.50
2022-12-15T13:09:19.349Z,21.52
2022-12-15T13:10:24.778Z,18.88
2022-12-15T13:11:45.892Z,21.63
2022-12-15T13:12:53.987Z,19.55
2022-12-15T13:13:57.290Z,22.08
2022-12-15T13:15:13.060Z,22.45
2022-12-15T13:16:23.062Z,21.95
2022-12-15T13:17:31.214Z,15.70
2022-12-15T13:19:04.650Z,21.40
2022-12-15T13:20:21.743Z,22.00
2022-12-15T13:21:43.291Z,22.20
2022-12-15T13:22:46.107Z,21.73
2022-12-15T13:23:51.516Z,21.83
2022-12-15T13:24:56.729Z,24.98
2022-12-15T13:25:59.371Z,22.95
2022-12-15T13:27:09.821Z,22.33
2022-12-15T13:28:39.236Z,22.27
2022-12-15T13:29:59.113Z,21.17
2022-12-15T13:31:23.049Z,22.48
2022-12-15T13:32:45.809Z,19.63
2022-12-15T13:33:52.317Z,19.42
2022-12-15T13:34:55.213Z,22.15
2022-12-15T13:35:58.635Z,22.70
2022-12-15T13:37:02.186Z,20.15
2022-12-15T13:38:07.698Z,20.90
2022-12-15T13:39:31.873Z,22.27
2022-12-15T13:40:38.021Z,22.38
2022-12-15T13:42:15.327Z,22.63
2022-12-15T13:43:27.690Z,23.70
2022-12-15T13:44:48.857Z,22.73
2022-12-15T13:45:56.055Z,22.30
2022-12-15T13:47:06.398Z,20.85
2022-12-15T13:48:35.429Z,20.17
2022-12-15T13:49:49.393Z,19.13
2022-12-15T13:51:03.235Z,19.33
2022-12-15T13:53:07.917Z,20.17
2022-12-15T13:54:12.279Z,21.08
2022-12-15T13:55:32.742Z,20.50
2022-12-15T13:56:51.824Z,19.40
2022-12-15T13:58:11.404Z,19.40
2022-12-15T13:59:29.353Z,21.50
2022-12-15T14:00:32.857Z,22.63
2022-12-15T14:01:35.708Z,23.27
2022-12-15T14:02:38.525Z,24.88
2022-12-15T14:03:55.953Z,26.60
2022-12-15T14:05:19.869Z,25.75
2022-12-15T14:06:22.795Z,22.20
2022-12-15T14:07:25.610Z,21.77
2022-12-15T14:08:30.532Z,21.10
2022-12-15T14:09:35.639Z,24.08
2022-12-15T14:10:43.938Z,24.42
2022-12-15T14:11:54.759Z,22.15
2022-12-15T14:14:01.305Z,19.30
2022-12-15T14:15:04.537Z,20.45
2022-12-15T14:16:20.097Z,22.42
2022-12-15T14:17:22.975Z,22.70
2022-12-15T14:18:28.811Z,23.15
2022-12-15T14:19:40.654Z,21.67
2022-12-15T14:20:43.415Z,22.23
2022-12-15T14:22:04.314Z,22.15
2022-12-15T14:24:38.449Z,20.88
2022-12-15T14:26:05.592Z,21.10
2022-12-15T14:27:08.536Z,20.85
2022-12-15T14:28:26.136Z,22.00
2022-12-15T14:29:29.000Z,23.02
2022-12-15T14:30:33.068Z,22.67
2022-12-15T14:31:37.328Z,23.65
2022-12-15T14:32:40.751Z,21.15
2022-12-15T14:33:45.854Z,23.20
2022-12-15T14:34:53.336Z,25.17
2022-12-15T14:35:57.751Z,24.73
2022-12-15T14:37:03.815Z,22.85
2022-12-15T14:38:08.670Z,24.08
2022-12-15T14:39:20.745Z,22.13
2022-12-15T14:40:28.610Z,25.60
2022-12-15T14:41:41.159Z,24.58
2022-12-15T14:42:44.082Z,26.98
2022-12-15T14:44:31.740Z,26.10
2022-12-15T14:45:32.395Z,23.63
2022-12-15T14:46:35.268Z,21.55
2022-12-15T14:47:37.956Z,22.50
2022-12-15T14:48:44.695Z,22.75
2022-12-15T14:49:48.622Z,20.73
2022-12-15T14:50:51.667Z,20.05
2022-12-15T14:51:59.968Z,20.05
2022-12-15T14:53:06.623Z,22.23
2022-12-15T14:54:36.396Z,21.67
2022-12-15T14:55:39.703Z,23.80
2022-12-15T14:56:42.492Z,21.05
2022-12-15T14:57:46.780Z,24.02
2022-12-15T14:59:06.402Z,24.73
2022-12-15T15:00:34.078Z,22.70
2022-12-15T15:01:40.988Z,24.42
2022-12-15T15:02:44.323Z,24.42
2022-12-15T15:03:06.436Z,18.90
2022-12-15T15:03:06.890Z,23.80
2022-12-15T15:03:12.732Z,22.40
2022-12-15T15:03:57.084Z,23.30
2022-12-15T15:05:05.506Z,23.92
2022-12-15T15:06:11.156Z,24.10
2022-12-15T15:07:18.270Z,21.77
2022-12-15T15:08:32.880Z,23.88
2022-12-15T15:09:43.208Z,23.67
2022-12-15T15:10:45.863Z,22.23
2022-12-15T15:12:10.702Z,23.75
2022-12-15T15:13:19.655Z,21.45
2022-12-15T15:14:27.477Z,21.45
2022-12-15T15:15:30.174Z,21.95